Clyde S. Van Enkevort — WDJ4194 — position and weather

sailwx.info

Track history (hours):
 
Tides and Currents Weather Stations Pressure Air Temp Water Temp Dewpoint Dewpoint Depression Visibility Wind Speed Wind Dir Waves Ship Positions

Clyde S. Van Enkevort

Owner: Van Enkevort Tug & Barge Inc., Escanaba, MI. More information available from US FCC via Universal Licensing System and Coast Guard Vessel Documentation Center.

Last reported at 2018-Jul-16 11:28 UTC. Time now 2018-Jul-16 17:45 UTC.
Position N 46°25' W 084°15'.

Length 30 m; draft 6.2 m.

Type: Towing. MMSI: 338888000.

Date/timePositionNaut miles runAvg speedWind from/ knotsBaromVisibWave heightAir tempDewpointWater temp
2018-Jul-16 11:28N 46°25' W 084°15'54 9.6
2018-Jul-16 05:54N 45°38' W 083°36'512.1
2018-Jul-16 05:30N 45°34' W 083°33'611.9
2018-Jul-16 05:00N 45°30' W 083°28'611.8
2018-Jul-16 04:28N 45°24' W 083°23'2511.8
2018-Jul-16 02:19N 45°02' W 083°05'412.1
2018-Jul-16 02:00N 44°59' W 083°04'  
2018-Jul-13 06:56N 45°23' W 083°15'611.7
2018-Jul-13 06:27N 45°27' W 083°20'611.6
2018-Jul-13 05:58N 45°32' W 083°25'511.7
2018-Jul-13 05:30N 45°36' W 083°30'611.7
2018-Jul-13 04:59N 45°40' W 083°35'911.8
2018-Jul-13 04:12N 45°48' W 083°44'  
2018-Jul-10 10:04N 47°08' W 086°19'111.9
2018-Jul-10 09:57N 47°08' W 086°18'511.9
2018-Jul-10 09:30N 47°06' W 086°10'611.9
2018-Jul-10 08:58N 47°04' W 086°01'611.9
2018-Jul-10 08:30N 47°02' W 085°54'611.9
2018-Jul-10 08:00N 46°60' W 085°46'5911.4
2018-Jul-10 02:47N 46°27' W 084°33'3 9.9
2018-Jul-10 02:30N 46°28' W 084°29'38 4.7
2018-Jul-09 18:24N 45°58' W 083°53'2411.5
2018-Jul-09 16:21N 45°38' W 083°36'811.8
2018-Jul-09 15:41N 45°31' W 083°30'311.9
2018-Jul-09 15:26N 45°29' W 083°27'  
2018-Jul-07 05:56N 45°12' W 083°07'511.8
2018-Jul-07 05:29N 45°17' W 083°10'612.1
2018-Jul-07 05:00N 45°22' W 083°15'612.0
2018-Jul-07 04:30N 45°26' W 083°20'612.0
2018-Jul-07 04:00N 45°31' W 083°26'611.9
2018-Jul-07 03:30N 45°36' W 083°31'612.1
2018-Jul-07 03:00N 45°41' W 083°36'612.0
2018-Jul-07 02:30N 45°45' W 083°41'611.9
2018-Jul-07 02:00N 45°50' W 083°46'612.2
2018-Jul-07 01:30N 45°55' W 083°52'1410.1
2018-Jul-07 00:09N 46°07' W 084°01'510.1
2018-Jul-06 23:41N 46°10' W 084°05'211.0
2018-Jul-06 23:30N 46°12' W 084°08'  
Track history (hours):
 
Tides and Currents Weather Stations Pressure Air Temp Water Temp Dewpoint Dewpoint Depression Visibility Wind Speed Wind Dir Waves Ship Positions

Clyde S. Van Enkevort

Owner: Van Enkevort Tug & Barge Inc., Escanaba, MI. More information available from US FCC via Universal Licensing System and Coast Guard Vessel Documentation Center.

Last reported at 2018-Jul-16 11:28 UTC. Time now 2018-Jul-16 17:45 UTC.
Position N 46°25' W 084°15'.

Length 30 m; draft 6.2 m.

Type: Towing. MMSI: 338888000.

Date/timePositionNaut miles runAvg speedWind from/ knotsBaromVisibWave heightAir tempDewpointWater temp
2018-Jul-16 11:28N 46°25' W 084°15'54 9.6
2018-Jul-16 05:54N 45°38' W 083°36'512.1
2018-Jul-16 05:30N 45°34' W 083°33'611.9
2018-Jul-16 05:00N 45°30' W 083°28'611.8
2018-Jul-16 04:28N 45°24' W 083°23'2511.8
2018-Jul-16 02:19N 45°02' W 083°05'412.1
2018-Jul-16 02:00N 44°59' W 083°04'  
2018-Jul-13 06:56N 45°23' W 083°15'611.7
2018-Jul-13 06:27N 45°27' W 083°20'611.6
2018-Jul-13 05:58N 45°32' W 083°25'511.7
2018-Jul-13 05:30N 45°36' W 083°30'611.7
2018-Jul-13 04:59N 45°40' W 083°35'911.8
2018-Jul-13 04:12N 45°48' W 083°44'  
2018-Jul-10 10:04N 47°08' W 086°19'111.9
2018-Jul-10 09:57N 47°08' W 086°18'511.9
2018-Jul-10 09:30N 47°06' W 086°10'611.9
2018-Jul-10 08:58N 47°04' W 086°01'611.9
2018-Jul-10 08:30N 47°02' W 085°54'611.9
2018-Jul-10 08:00N 46°60' W 085°46'5911.4
2018-Jul-10 02:47N 46°27' W 084°33'3 9.9
2018-Jul-10 02:30N 46°28' W 084°29'38 4.7
2018-Jul-09 18:24N 45°58' W 083°53'2411.5
2018-Jul-09 16:21N 45°38' W 083°36'811.8
2018-Jul-09 15:41N 45°31' W 083°30'311.9
2018-Jul-09 15:26N 45°29' W 083°27'  
2018-Jul-07 05:56N 45°12' W 083°07'511.8
2018-Jul-07 05:29N 45°17' W 083°10'612.1
2018-Jul-07 05:00N 45°22' W 083°15'612.0
2018-Jul-07 04:30N 45°26' W 083°20'612.0
2018-Jul-07 04:00N 45°31' W 083°26'611.9
2018-Jul-07 03:30N 45°36' W 083°31'612.1
2018-Jul-07 03:00N 45°41' W 083°36'612.0
2018-Jul-07 02:30N 45°45' W 083°41'611.9
2018-Jul-07 02:00N 45°50' W 083°46'612.2
2018-Jul-07 01:30N 45°55' W 083°52'1410.1
2018-Jul-07 00:09N 46°07' W 084°01'510.1
2018-Jul-06 23:41N 46°10' W 084°05'211.0
2018-Jul-06 23:30N 46°12' W 084°08'  

Dump ship's entire track history